Time;durP1;ratioP1;P1;durP2;ratioP2;P2;SDS_P1;SDS_P2;PMS_P1;PMS_P2;Temp;Humidity;BMP_temperature;BMP_pressure;BME280_temperature;BME280_humidity;BME280_pressure;Samples;Min_cycle;Max_cycle;Signal;HPM_P1;HPM_P2
2023/11/20 00:00:46;;;;;;;;;;;;;;;11.46;60.19;97643.78;5010525;28;19933;-73
2023/11/20 00:03:35;;;;;;;;;;;;;;;11.51;60.22;97645.53;5001673;28;19948;-73
2023/11/20 00:06:23;;;;;;;;;;;;;;;11.43;59.89;97641.69;5008100;28;19983;-73
2023/11/20 00:09:12;;;;;;;;;;;;;;;11.42;59.78;97637.38;4991013;28;19935;-73
2023/11/20 00:12:00;;;;;;;;;;;;;;;11.43;59.85;97628.09;4998575;28;20387;-73
2023/11/20 00:14:50;;;;;;;;;;;;;;;11.39;59.78;97629.06;5004990;28;19949;-73
2023/11/20 00:17:38;;;;;;;;;;;;;;;11.47;59.65;97623.63;5003725;28;19926;-73
2023/11/20 00:20:26;;;;;;;;;;;;;;;11.48;59.44;97625.22;5011467;28;20015;-73
2023/11/20 00:23:14;;;;;;;;;;;;;;;11.38;59.48;97627.47;5003565;28;19930;-73
2023/11/20 00:26:02;;;;;;;;;;;;;;;11.39;59.04;97638.03;5004698;28;21488;-73
2023/11/20 00:28:53;;;;;;;;;;;;;;;11.40;59.03;97636.09;5010309;28;19932;-73
2023/11/20 00:31:43;;;;;;;;;;;;;;;11.46;59.13;97641.06;5009005;28;20355;-73
2023/11/20 00:34:31;;;;;;;;;;;;;;;11.44;59.15;97635.13;5003815;28;19925;-73
2023/11/20 00:37:19;;;;;;;;;;;;;;;11.49;59.06;97629.53;5004401;28;19925;-73
2023/11/20 00:40:11;;;;;;;;;;;;;;;11.50;59.28;97627.59;5007517;28;20290;-73
2023/11/20 00:43:00;;;;;;;;;;;;;;;11.50;58.70;97636.59;5006713;28;19936;-73
2023/11/20 00:45:48;;;;;;;;;;;;;;;11.49;58.76;97626.00;5006523;28;19968;-73
2023/11/20 00:48:37;;;;;;;;;;;;;;;11.52;59.00;97628.88;4990673;28;20391;-73
2023/11/20 00:51:26;;;;;;;;;;;;;;;11.60;58.71;97637.34;5006741;28;19926;-73
2023/11/20 00:54:14;;;;;;;;;;;;;;;11.62;58.27;97626.94;4991431;28;20306;-74
2023/11/20 00:57:02;;;;;;;;;;;;;;;11.56;58.67;97631.78;5004105;28;19976;-73
2023/11/20 00:59:50;;;;;;;;;;;;;;;11.64;58.01;97636.38;5006313;28;20290;-73
2023/11/20 01:02:38;;;;;;;;;;;;;;;11.54;58.34;97642.97;5005235;28;19932;-74
2023/11/20 01:05:28;;;;;;;;;;;;;;;11.48;58.31;97640.75;5006208;28;19976;-73
2023/11/20 01:08:16;;;;;;;;;;;;;;;11.42;57.75;97637.38;5006071;28;19936;-73
2023/11/20 01:11:07;;;;;;;;;;;;;;;11.45;58.37;97642.19;5005055;28;19926;-74
2023/11/20 01:13:55;;;;;;;;;;;;;;;11.44;58.55;97639.78;5000621;28;19945;-73
2023/11/20 01:16:43;;;;;;;;;;;;;;;11.50;58.15;97641.19;5011696;28;20387;-73
2023/11/20 01:19:31;;;;;;;;;;;;;;;11.48;57.93;97644.25;5006500;28;19945;-73
2023/11/20 01:22:21;;;;;;;;;;;;;;;11.53;58.61;97638.66;5006738;28;19926;-73
2023/11/20 01:25:09;;;;;;;;;;;;;;;11.47;58.22;97644.59;5008190;28;20291;-73
2023/11/20 01:27:58;;;;;;;;;;;;;;;11.51;58.28;97635.47;5011421;28;19926;-73
2023/11/20 01:30:46;;;;;;;;;;;;;;;11.48;58.50;97644.25;5005534;28;19936;-73
2023/11/20 01:33:36;;;;;;;;;;;;;;;11.49;58.68;97643.13;5006889;28;19933;-73
2023/11/20 01:36:24;;;;;;;;;;;;;;;11.53;58.42;97641.38;5005754;28;19925;-73
2023/11/20 01:39:14;;;;;;;;;;;;;;;11.44;58.69;97640.56;4999828;28;19932;-77
2023/11/20 01:42:03;;;;;;;;;;;;;;;11.57;58.89;97638.81;5008002;28;20268;-73
2023/11/20 01:44:51;;;;;;;;;;;;;;;11.59;58.19;97627.59;5006556;28;19929;-73
2023/11/20 01:47:39;;;;;;;;;;;;;;;11.57;58.91;97638.00;5002177;28;20413;-73
2023/11/20 01:50:27;;;;;;;;;;;;;;;11.60;58.76;97637.34;5004553;28;19937;-73
2023/11/20 01:53:16;;;;;;;;;;;;;;;11.44;59.16;97642.50;5008378;28;19981;-73
2023/11/20 01:56:05;;;;;;;;;;;;;;;11.47;58.89;97642.66;5002921;28;20113;-74
2023/11/20 01:58:53;;;;;;;;;;;;;;;11.55;58.81;97641.81;4991581;28;19925;-73
2023/11/20 02:01:42;;;;;;;;;;;;;;;11.58;58.05;97650.47;5006650;28;19933;-73
2023/11/20 02:04:30;;;;;;;;;;;;;;;11.48;58.46;97652.41;4996234;28;20078;-73
2023/11/20 02:07:18;;;;;;;;;;;;;;;11.49;58.68;97647.78;5006085;28;19929;-73
2023/11/20 02:10:07;;;;;;;;;;;;;;;11.46;58.52;97643.00;5008802;28;19926;-73
2023/11/20 02:12:58;;;;;;;;;;;;;;;11.50;58.84;97647.47;5004427;28;19925;-74
2023/11/20 02:15:46;;;;;;;;;;;;;;;11.48;58.66;97646.19;5005201;28;19931;-73
2023/11/20 02:18:35;;;;;;;;;;;;;;;11.43;58.75;97638.19;5004680;28;20008;-74
2023/11/20 02:21:24;;;;;;;;;;;;;;;11.30;59.20;97642.69;4995840;28;19929;-73
2023/11/20 02:24:12;;;;;;;;;;;;;;;11.41;59.04;97643.97;5008802;28;19933;-73
2023/11/20 02:27:04;;;;;;;;;;;;;;;11.37;59.53;97629.41;4992680;28;19936;-73
2023/11/20 02:29:54;;;;;;;;;;;;;;;11.48;58.80;97641.53;5011387;28;19925;-73
2023/11/20 02:32:43;;;;;;;;;;;;;;;11.41;59.30;97630.34;5011680;28;19925;-73
2023/11/20 02:35:31;;;;;;;;;;;;;;;11.39;59.37;97632.59;5008083;28;19929;-73
2023/11/20 02:38:19;;;;;;;;;;;;;;;11.52;59.34;97639.78;4995789;28;19932;-73
2023/11/20 02:41:07;;;;;;;;;;;;;;;11.45;59.64;97636.75;5007309;28;19933;-73
2023/11/20 02:43:56;;;;;;;;;;;;;;;11.58;59.27;97639.59;5013594;28;19933;-73
2023/11/20 02:46:46;;;;;;;;;;;;;;;11.63;59.05;97636.72;5009196;28;19930;-73
2023/11/20 02:49:35;;;;;;;;;;;;;;;11.57;59.11;97633.38;4998716;28;19933;-73
2023/11/20 02:52:24;;;;;;;;;;;;;;;11.44;59.27;97635.13;5009178;28;19941;-73
2023/11/20 02:55:13;;;;;;;;;;;;;;;11.52;59.54;97637.06;5012331;28;19952;-73
2023/11/20 02:58:01;;;;;;;;;;;;;;;11.44;60.56;97637.06;5012618;28;19929;-73
2023/11/20 03:00:53;;;;;;;;;;;;;;;11.17;61.21;97640.94;5010239;28;20382;-73
2023/11/20 03:03:42;;;;;;;;;;;;;;;11.35;60.74;97636.28;4996184;28;20027;-73
2023/11/20 03:06:31;;;;;;;;;;;;;;;11.25;61.17;97637.44;5012001;28;19992;-74
2023/11/20 03:09:19;;;;;;;;;;;;;;;11.18;61.40;97637.09;5009990;28;19930;-73
2023/11/20 03:12:07;;;;;;;;;;;;;;;11.31;61.88;97629.91;5008812;28;20295;-73
2023/11/20 03:14:55;;;;;;;;;;;;;;;11.15;62.09;97630.41;5009040;28;19933;-73
2023/11/20 03:17:46;;;;;;;;;;;;;;;11.02;62.39;97632.19;5012004;28;19939;-73
2023/11/20 03:20:35;;;;;;;;;;;;;;;11.23;63.19;97635.00;5009075;28;19926;-73
2023/11/20 03:23:24;;;;;;;;;;;;;;;11.20;61.40;97635.66;5006966;28;19929;-73
2023/11/20 03:26:12;;;;;;;;;;;;;;;11.19;62.12;97628.63;5010927;28;19926;-73
2023/11/20 03:29:00;;;;;;;;;;;;;;;11.33;60.56;97619.47;4994541;28;19925;-73
2023/11/20 03:31:48;;;;;;;;;;;;;;;11.37;61.25;97618.53;5011210;28;19934;-73
2023/11/20 03:34:36;;;;;;;;;;;;;;;11.22;61.50;97627.19;4997251;28;20055;-73
2023/11/20 03:37:25;;;;;;;;;;;;;;;11.12;63.11;97633.75;5004431;28;20406;-73
2023/11/20 03:40:13;;;;;;;;;;;;;;;11.22;63.21;97621.75;5005588;28;19925;-73
2023/11/20 03:43:01;;;;;;;;;;;;;;;11.34;63.72;97618.34;4995742;28;19929;-74
2023/11/20 03:45:51;;;;;;;;;;;;;;;11.42;62.97;97620.28;5002819;28;19926;-74
2023/11/20 03:48:39;;;;;;;;;;;;;;;11.40;62.91;97615.16;5005173;28;20414;-73
2023/11/20 03:51:28;;;;;;;;;;;;;;;11.35;63.12;97607.19;5008967;28;20357;-73
2023/11/20 03:54:17;;;;;;;;;;;;;;;11.32;63.04;97601.56;5010842;28;19936;-73
2023/11/20 03:57:05;;;;;;;;;;;;;;;11.31;63.81;97613.59;5009007;28;19925;-73
2023/11/20 03:59:53;;;;;;;;;;;;;;;11.02;64.36;97602.28;5002629;28;19929;-73
2023/11/20 04:02:42;;;;;;;;;;;;;;;11.28;63.70;97604.13;5002253;28;19925;-73
2023/11/20 04:05:30;;;;;;;;;;;;;;;11.36;63.75;97599.81;5006949;28;20020;-73
2023/11/20 04:08:18;;;;;;;;;;;;;;;11.43;63.30;97600.91;5003756;28;19925;-73
2023/11/20 04:11:07;;;;;;;;;;;;;;;11.43;62.62;97591.94;5009931;28;20012;-73
2023/11/20 04:13:56;;;;;;;;;;;;;;;11.27;63.44;97592.47;4992451;28;19926;-73
2023/11/20 04:16:45;;;;;;;;;;;;;;;11.23;63.05;97590.69;4995191;28;20354;-73
2023/11/20 04:19:33;;;;;;;;;;;;;;;11.13;63.21;97593.75;5004044;28;20295;-73
2023/11/20 04:22:22;;;;;;;;;;;;;;;11.13;63.17;97596.47;5005580;28;20389;-73
2023/11/20 04:25:10;;;;;;;;;;;;;;;11.05;63.70;97598.09;5006938;28;19933;-73
2023/11/20 04:28:02;;;;;;;;;;;;;;;11.16;63.46;97601.28;5010817;28;20275;-73
2023/11/20 04:30:51;;;;;;;;;;;;;;;11.01;64.29;97599.84;5006038;28;20390;-73
2023/11/20 04:33:42;;;;;;;;;;;;;;;11.08;64.38;97593.94;5009094;28;19929;-73
2023/11/20 04:36:30;;;;;;;;;;;;;;;11.02;64.30;97594.13;5010291;28;19925;-73
2023/11/20 04:39:18;;;;;;;;;;;;;;;10.99;64.93;97594.75;5009952;28;19925;-73
2023/11/20 04:42:07;;;;;;;;;;;;;;;11.24;64.35;97586.88;5008493;28;19948;-73
2023/11/20 04:44:56;;;;;;;;;;;;;;;11.11;65.17;97583.22;5012811;28;20019;-73
2023/11/20 04:47:44;;;;;;;;;;;;;;;11.19;64.85;97596.00;5008957;28;19997;-73
2023/11/20 04:50:32;;;;;;;;;;;;;;;11.22;64.60;97589.13;5006604;28;20426;-73
2023/11/20 04:53:20;;;;;;;;;;;;;;;11.21;64.22;97591.03;5008499;28;19966;-74
2023/11/20 04:56:09;;;;;;;;;;;;;;;11.12;65.16;97584.00;5009572;28;20375;-73
2023/11/20 04:58:58;;;;;;;;;;;;;;;11.24;64.87;97592.31;5007017;28;20038;-73
2023/11/20 05:01:47;;;;;;;;;;;;;;;11.04;65.13;97588.34;4990868;28;19925;-73
2023/11/20 05:04:35;;;;;;;;;;;;;;;11.07;65.56;97574.09;5009462;28;19925;-73
2023/11/20 05:07:24;;;;;;;;;;;;;;;11.06;66.09;97569.00;5008397;28;19933;-73
2023/11/20 05:10:12;;;;;;;;;;;;;;;11.15;66.16;97567.84;5007327;28;19925;-73
2023/11/20 05:13:01;;;;;;;;;;;;;;;11.04;66.49;97574.75;5009374;28;19934;-74
2023/11/20 05:15:51;;;;;;;;;;;;;;;11.04;66.66;97560.38;5009152;28;19948;-73
2023/11/20 05:18:40;;;;;;;;;;;;;;;11.09;66.61;97562.94;5010007;28;19929;-74
2023/11/20 05:21:28;;;;;;;;;;;;;;;11.37;65.66;97568.78;5005412;28;19925;-74
2023/11/20 05:24:16;;;;;;;;;;;;;;;11.48;65.43;97578.97;5003606;28;19932;-73
2023/11/20 05:27:04;;;;;;;;;;;;;;;11.50;64.37;97574.03;5004890;28;19925;-73
2023/11/20 05:29:53;;;;;;;;;;;;;;;11.48;65.16;97583.63;5002117;28;21310;-73
2023/11/20 05:32:41;;;;;;;;;;;;;;;11.46;64.87;97575.78;5006054;28;20036;-73
2023/11/20 05:35:30;;;;;;;;;;;;;;;11.40;64.71;97571.66;4993293;28;20018;-73
2023/11/20 05:38:18;;;;;;;;;;;;;;;11.48;65.14;97578.97;5005840;28;19926;-73
2023/11/20 05:41:08;;;;;;;;;;;;;;;11.42;65.62;97583.00;5006606;28;19971;-73
2023/11/20 05:43:56;;;;;;;;;;;;;;;11.22;66.07;97583.69;5008437;28;19932;-73
2023/11/20 05:46:44;;;;;;;;;;;;;;;11.39;65.89;97586.34;5007054;28;19926;-73
2023/11/20 05:49:32;;;;;;;;;;;;;;;11.36;66.14;97581.56;5007463;28;19929;-73
2023/11/20 05:52:21;;;;;;;;;;;;;;;11.25;66.75;97577.59;5011645;28;19999;-73
2023/11/20 05:55:09;;;;;;;;;;;;;;;11.20;67.07;97581.28;5012465;28;19992;-73
2023/11/20 05:57:57;;;;;;;;;;;;;;;11.27;67.57;97580.78;4991318;28;20457;-73
2023/11/20 06:00:47;;;;;;;;;;;;;;;11.35;67.25;97584.63;5004952;28;19925;-73
2023/11/20 06:03:35;;;;;;;;;;;;;;;11.30;67.23;97582.06;5006702;28;19933;-73
2023/11/20 06:06:23;;;;;;;;;;;;;;;11.43;67.10;97570.97;5007137;28;19953;-73
2023/11/20 06:09:12;;;;;;;;;;;;;;;11.37;67.08;97569.56;5011947;28;20587;-74
2023/11/20 06:12:01;;;;;;;;;;;;;;;11.25;67.05;97566.72;5011326;28;19925;-74
2023/11/20 06:14:49;;;;;;;;;;;;;;;11.09;67.21;97569.16;5012332;28;19979;-73
2023/11/20 06:17:38;;;;;;;;;;;;;;;11.23;67.34;97567.03;5002998;28;19979;-74
2023/11/20 06:20:26;;;;;;;;;;;;;;;11.05;67.01;97568.19;5009188;28;19926;-73
2023/11/20 06:23:15;;;;;;;;;;;;;;;11.09;67.05;97568.34;5009618;28;19933;-73
2023/11/20 06:26:05;;;;;;;;;;;;;;;11.16;66.26;97560.50;5003296;28;20083;-74
2023/11/20 06:28:53;;;;;;;;;;;;;;;11.17;65.94;97571.03;5006079;28;20016;-74
2023/11/20 06:31:41;;;;;;;;;;;;;;;11.26;65.43;97568.31;5007278;28;19925;-74
2023/11/20 06:34:29;;;;;;;;;;;;;;;11.39;65.36;97575.47;5006741;28;20012;-74
2023/11/20 06:37:20;;;;;;;;;;;;;;;11.45;64.78;97579.63;5008537;28;19925;-73
2023/11/20 06:40:09;;;;;;;;;;;;;;;11.53;64.07;97586.16;4996246;28;19968;-74
2023/11/20 06:43:01;;;;;;;;;;;;;;;11.52;63.65;97581.84;5004517;28;20416;-74
2023/11/20 06:45:49;;;;;;;;;;;;;;;11.48;63.42;97589.84;5000220;28;19934;-74
2023/11/20 06:48:37;;;;;;;;;;;;;;;11.14;63.56;97588.03;5012273;28;19988;-74
2023/11/20 06:51:26;;;;;;;;;;;;;;;11.27;63.52;97586.22;5008139;28;20490;-74
2023/11/20 06:54:14;;;;;;;;;;;;;;;11.40;62.91;97601.56;5011693;28;19926;-74
2023/11/20 06:57:04;;;;;;;;;;;;;;;11.43;63.03;97594.66;5011116;28;19926;-74
2023/11/20 06:59:54;;;;;;;;;;;;;;;11.32;62.99;97596.94;5007237;28;19934;-74
2023/11/20 07:02:43;;;;;;;;;;;;;;;11.39;63.09;97608.09;5006334;28;20387;-74
2023/11/20 07:05:31;;;;;;;;;;;;;;;11.52;62.95;97609.84;5012465;28;20111;-74
2023/11/20 07:08:21;;;;;;;;;;;;;;;11.51;62.88;97605.53;5002683;28;19937;-74
2023/11/20 07:11:09;;;;;;;;;;;;;;;11.36;63.03;97606.06;5010255;28;19926;-75
2023/11/20 07:13:57;;;;;;;;;;;;;;;11.54;62.56;97606.78;5013166;28;20518;-74
2023/11/20 07:16:47;;;;;;;;;;;;;;;11.49;62.45;97613.19;5003356;28;19960;-74
2023/11/20 07:19:40;;;;;;;;;;;;;;;11.45;62.92;97609.56;5007185;28;20016;-74
2023/11/20 07:22:29;;;;;;;;;;;;;;;11.43;62.86;97616.44;5011891;28;19922;-74
2023/11/20 07:25:17;;;;;;;;;;;;;;;11.44;62.16;97613.38;5001620;28;20004;-74
2023/11/20 07:28:06;;;;;;;;;;;;;;;11.44;62.37;97613.38;5001792;28;19922;-74
2023/11/20 07:30:54;;;;;;;;;;;;;;;11.36;62.27;97616.94;5000114;28;19932;-74
2023/11/20 07:33:44;;;;;;;;;;;;;;;11.43;62.16;97611.78;5006708;28;19928;-74
2023/11/20 07:36:33;;;;;;;;;;;;;;;11.26;62.53;97619.97;5006182;28;19921;-73
2023/11/20 07:39:21;;;;;;;;;;;;;;;11.34;62.14;97602.03;4994403;28;20001;-74
2023/11/20 07:42:10;;;;;;;;;;;;;;;11.14;62.85;97608.97;5010512;28;20006;-74
2023/11/20 07:44:58;;;;;;;;;;;;;;;11.00;63.49;97603.69;5008647;28;19940;-74
2023/11/20 07:47:46;;;;;;;;;;;;;;;11.10;63.37;97610.72;5009355;28;20292;-74
2023/11/20 07:50:36;;;;;;;;;;;;;;;11.17;63.16;97609.09;5007100;28;20442;-74
2023/11/20 07:53:27;;;;;;;;;;;;;;;10.95;63.64;97612.03;5009355;28;19967;-74
2023/11/20 07:56:17;;;;;;;;;;;;;;;11.03;63.80;97608.50;5008918;28;19922;-74
2023/11/20 07:59:06;;;;;;;;;;;;;;;11.04;64.04;97620.19;5006059;28;19932;-74
2023/11/20 08:01:55;;;;;;;;;;;;;;;11.13;63.47;97619.06;5008647;28;20008;-74
2023/11/20 08:04:43;;;;;;;;;;;;;;;11.13;64.53;97620.94;5011659;28;19957;-74
2023/11/20 08:07:33;;;;;;;;;;;;;;;11.12;64.53;97622.06;5008830;28;20016;-74
2023/11/20 08:10:22;;;;;;;;;;;;;;;11.10;64.85;97608.81;4986892;28;20086;-74
2023/11/20 08:13:10;;;;;;;;;;;;;;;11.24;64.80;97616.81;5002773;28;19929;-73
2023/11/20 08:15:58;;;;;;;;;;;;;;;11.15;64.97;97605.94;5003185;28;19937;-73
2023/11/20 08:18:46;;;;;;;;;;;;;;;11.16;64.60;97612.16;5005520;28;19922;-73
2023/11/20 08:21:34;;;;;;;;;;;;;;;11.30;64.46;97612.78;5008731;28;19952;-73
2023/11/20 08:24:24;;;;;;;;;;;;;;;11.16;64.45;97614.88;5006107;28;19988;-74
2023/11/20 08:27:12;;;;;;;;;;;;;;;11.35;64.34;97609.91;5002498;28;20398;-74
2023/11/20 08:30:01;;;;;;;;;;;;;;;11.30;64.41;97615.50;5006898;28;20355;-74
2023/11/20 08:32:49;;;;;;;;;;;;;;;11.23;64.57;97618.69;5008901;28;20371;-75
2023/11/20 08:35:37;;;;;;;;;;;;;;;11.34;64.01;97612.91;4994801;28;19921;-74
2023/11/20 08:38:25;;;;;;;;;;;;;;;11.34;63.60;97610.19;5008222;28;20008;-74
2023/11/20 08:41:14;;;;;;;;;;;;;;;11.36;64.06;97622.38;5007785;28;19932;-74
2023/11/20 08:44:03;;;;;;;;;;;;;;;11.43;63.64;97622.66;5010022;28;19961;-74
2023/11/20 08:46:51;;;;;;;;;;;;;;;11.43;63.84;97624.59;5006549;28;20019;-74
2023/11/20 08:49:39;;;;;;;;;;;;;;;11.45;63.52;97625.06;5007009;28;20398;-74
2023/11/20 08:52:27;;;;;;;;;;;;;;;11.55;63.88;97620.06;5008495;28;19922;-74
2023/11/20 08:55:15;;;;;;;;;;;;;;;11.47;63.58;97614.66;5008206;28;19925;-74
2023/11/20 08:58:08;;;;;;;;;;;;;;;11.47;63.75;97623.63;5007542;28;19929;-74
2023/11/20 09:00:56;;;;;;;;;;;;;;;11.55;64.03;97614.63;5010697;28;20299;-74
2023/11/20 09:03:44;;;;;;;;;;;;;;;11.38;64.35;97616.59;4993601;28;19921;-74
2023/11/20 09:06:33;;;;;;;;;;;;;;;11.40;65.20;97615.16;5006046;28;19933;-74
2023/11/20 09:09:21;;;;;;;;;;;;;;;11.52;64.99;97612.56;5001767;28;19987;-75
2023/11/20 09:12:09;;;;;;;;;;;;;;;11.47;64.91;97623.63;4991907;28;20060;-74
2023/11/20 09:14:59;;;;;;;;;;;;;;;11.40;64.98;97617.88;5007887;28;20012;-74
2023/11/20 09:17:47;;;;;;;;;;;;;;;11.39;65.02;97627.16;5007164;28;19928;-74
2023/11/20 09:20:35;;;;;;;;;;;;;;;11.33;64.77;97625.72;5008894;28;20016;-74
2023/11/20 09:23:23;;;;;;;;;;;;;;;11.43;65.33;97638.19;5004453;28;20284;-73
2023/11/20 09:26:12;;;;;;;;;;;;;;;11.42;64.80;97626.50;5011111;28;19952;-75
2023/11/20 09:29:00;;;;;;;;;;;;;;;11.38;64.54;97632.91;5008788;28;19933;-74
2023/11/20 09:31:50;;;;;;;;;;;;;;;11.28;64.83;97623.16;4998057;28;19921;-74
2023/11/20 09:34:38;;;;;;;;;;;;;;;11.28;65.35;97631.31;4994816;28;19945;-74
2023/11/20 09:37:27;;;;;;;;;;;;;;;11.36;65.07;97632.44;5009109;28;19932;-74
2023/11/20 09:40:16;;;;;;;;;;;;;;;11.37;65.47;97636.75;4999400;28;20404;-74
2023/11/20 09:43:04;;;;;;;;;;;;;;;11.35;64.87;97630.84;5013417;28;20004;-74
2023/11/20 09:45:55;;;;;;;;;;;;;;;11.28;65.24;97617.72;4999272;28;20399;-74
2023/11/20 09:48:47;;;;;;;;;;;;;;;11.31;65.42;97613.59;4998252;28;19979;-74
2023/11/20 09:51:36;;;;;;;;;;;;;;;11.34;65.09;97611.00;5012022;28;20016;-75
2023/11/20 09:54:25;;;;;;;;;;;;;;;11.49;64.93;97615.91;5010949;28;19922;-74
2023/11/20 09:57:12;;;;;;;;;;;;;;;11.52;64.26;97615.28;4998842;28;19921;-74
2023/11/20 10:00:02;;;;;;;;;;;;;;;11.48;64.56;97608.88;5011222;28;19977;-74
2023/11/20 10:02:51;;;;;;;;;;;;;;;11.39;64.50;97610.03;5008815;28;19933;-74
2023/11/20 10:05:41;;;;;;;;;;;;;;;11.50;64.25;97605.84;5002560;28;19929;-74
2023/11/20 10:08:29;;;;;;;;;;;;;;;11.54;64.35;97601.34;5011073;28;20018;-74
2023/11/20 10:11:18;;;;;;;;;;;;;;;11.61;64.06;97623.44;5012577;28;19921;-74
2023/11/20 10:14:06;;;;;;;;;;;;;;;11.45;64.10;97606.84;5012238;28;19951;-74
2023/11/20 10:16:54;;;;;;;;;;;;;;;11.64;63.63;97605.66;5009310;28;20007;-74
2023/11/20 10:19:42;;;;;;;;;;;;;;;11.54;64.33;97604.06;5013004;28;19921;-74
2023/11/20 10:22:35;;;;;;;;;;;;;;;11.59;64.26;97587.56;5010646;28;19921;-75
2023/11/20 10:25:23;;;;;;;;;;;;;;;11.79;63.66;97591.50;5008257;28;19925;-74
2023/11/20 10:28:14;;;;;;;;;;;;;;;11.82;63.76;97592.78;4996147;28;20264;-74
2023/11/20 10:31:04;;;;;;;;;;;;;;;11.86;63.38;97597.25;5011536;28;19934;-75
2023/11/20 10:34:01;;;;;;;;;;;;;;;11.71;63.09;97584.16;4997320;28;19929;-74
2023/11/20 10:37:02;;;;;;;;;;;;;;;11.64;63.76;97575.72;5007053;28;19933;-74
2023/11/20 10:39:54;;;;;;;;;;;;;;;11.72;63.60;97570.25;4996015;28;20378;-74
2023/11/20 10:42:43;;;;;;;;;;;;;;;11.68;63.30;97579.38;5006024;28;19922;-74
2023/11/20 10:45:33;;;;;;;;;;;;;;;11.78;63.06;97576.31;5007923;28;19968;-74
2023/11/20 10:48:22;;;;;;;;;;;;;;;11.72;63.14;97574.91;5007886;28;19968;-74
2023/11/20 10:51:12;;;;;;;;;;;;;;;11.73;63.32;97571.84;4996153;28;19925;-74
2023/11/20 10:54:01;;;;;;;;;;;;;;;11.82;63.68;97566.38;5008578;28;20403;-73
2023/11/20 10:56:51;;;;;;;;;;;;;;;11.82;63.97;97566.38;5010311;28;19979;-73
2023/11/20 10:59:39;;;;;;;;;;;;;;;11.76;63.85;97554.84;5005409;28;20020;-74
2023/11/20 11:02:29;;;;;;;;;;;;;;;11.58;64.31;97552.53;4999829;28;20295;-74
2023/11/20 11:05:17;;;;;;;;;;;;;;;11.54;64.30;97553.19;5011035;28;20000;-74
2023/11/20 11:08:06;;;;;;;;;;;;;;;11.47;64.49;97552.91;5006658;28;19933;-74
2023/11/20 11:10:55;;;;;;;;;;;;;;;11.33;65.24;97548.78;5006757;28;19925;-73
2023/11/20 11:13:44;;;;;;;;;;;;;;;11.42;65.12;97544.13;5003691;28;19933;-73
2023/11/20 11:17:01;;;;;;;;;;;;;;;11.42;65.13;97547.63;5007667;28;19929;-73
2023/11/20 11:19:52;;;;;;;;;;;;;;;11.35;64.53;97543.81;5007946;28;19930;-74
2023/11/20 11:22:42;;;;;;;;;;;;;;;11.50;64.96;97544.09;5008988;28;20395;-74
2023/11/20 11:25:30;;;;;;;;;;;;;;;11.60;64.56;97551.06;5002660;28;19991;-73
2023/11/20 11:28:18;;;;;;;;;;;;;;;11.58;64.57;97541.66;5006798;28;19929;-73
2023/11/20 11:31:08;;;;;;;;;;;;;;;11.71;64.29;97533.25;5008454;28;20023;-74
2023/11/20 11:34:06;;;;;;;;;;;;;;;11.72;63.94;97534.88;5009160;28;19926;-74
2023/11/20 11:36:57;;;;;;;;;;;;;;;11.59;64.03;97529.63;5004728;28;19933;-74
2023/11/20 11:39:48;;;;;;;;;;;;;;;11.74;64.43;97535.34;4996701;28;19932;-74
2023/11/20 11:42:38;;;;;;;;;;;;;;;11.70;64.31;97533.59;5012404;28;20391;-74
2023/11/20 11:45:27;;;;;;;;;;;;;;;11.60;64.57;97525.78;5008698;28;19984;-74
2023/11/20 11:48:17;;;;;;;;;;;;;;;11.49;64.02;97518.00;5009463;28;20012;-74
2023/11/20 11:51:18;;;;;;;;;;;;;;;11.50;64.00;97514.16;5004288;28;20020;-74
2023/11/20 11:54:26;;;;;;;;;;;;;;;11.66;63.85;97510.88;4997580;28;20020;-74
2023/11/20 11:57:16;;;;;;;;;;;;;;;11.64;64.00;97510.41;5003422;28;19926;-74
2023/11/20 12:00:10;;;;;;;;;;;;;;;11.58;63.46;97512.53;5000352;28;19952;-74
2023/11/20 12:03:08;;;;;;;;;;;;;;;11.56;63.57;97512.06;5005856;28;19926;-74
2023/11/20 12:06:16;;;;;;;;;;;;;;;11.71;63.19;97513.41;5007317;28;20335;-74
2023/11/20 12:09:04;;;;;;;;;;;;;;;11.54;63.10;97501.50;5006005;28;19925;-74
2023/11/20 12:11:56;;;;;;;;;;;;;;;11.66;62.69;97502.72;5002037;28;19930;-74
2023/11/20 12:14:45;;;;;;;;;;;;;;;11.70;62.98;97501.72;4993757;28;19926;-74
2023/11/20 12:17:35;;;;;;;;;;;;;;;11.99;61.88;97486.56;5009270;28;19925;-74
2023/11/20 12:20:24;;;;;;;;;;;;;;;12.00;61.25;97483.50;5010410;28;19925;-74
2023/11/20 12:23:19;;;;;;;;;;;;;;;12.04;61.00;97479.00;5007140;28;19926;-74
2023/11/20 12:26:09;;;;;;;;;;;;;;;12.11;61.29;97485.84;5003876;28;20315;-74
2023/11/20 12:28:57;;;;;;;;;;;;;;;12.24;60.48;97477.38;5007424;28;20435;-73
2023/11/20 12:31:46;;;;;;;;;;;;;;;12.22;60.59;97482.38;4990680;28;20015;-74
2023/11/20 12:34:34;;;;;;;;;;;;;;;11.96;60.83;97476.31;5005319;28;19971;-74
2023/11/20 12:37:22;;;;;;;;;;;;;;;11.94;60.98;97478.59;5009320;28;20024;-74
2023/11/20 12:40:12;;;;;;;;;;;;;;;11.94;60.81;97473.13;5008849;28;19933;-74
2023/11/20 12:43:02;;;;;;;;;;;;;;;11.80;60.80;97493.19;5009844;28;19931;-74
2023/11/20 12:45:51;;;;;;;;;;;;;;;11.62;60.85;97488.97;4997441;28;19936;-74
2023/11/20 12:48:40;;;;;;;;;;;;;;;11.54;60.65;97473.50;5009926;28;19929;-74
2023/11/20 12:51:28;;;;;;;;;;;;;;;11.54;61.50;97471.56;5006054;28;19944;-74
2023/11/20 12:54:18;;;;;;;;;;;;;;;11.57;61.19;97475.56;5007170;28;19933;-74
2023/11/20 12:57:08;;;;;;;;;;;;;;;11.74;61.30;97464.56;5008875;28;19925;-74
2023/11/20 12:59:56;;;;;;;;;;;;;;;11.80;60.91;97462.47;5005151;28;20455;-74
2023/11/20 13:02:53;;;;;;;;;;;;;;;11.73;61.23;97467.63;4999672;28;19929;-73
2023/11/20 13:05:44;;;;;;;;;;;;;;;11.64;61.23;97451.34;5009265;28;20566;-74
2023/11/20 13:08:32;;;;;;;;;;;;;;;11.69;61.16;97453.88;5005426;28;20011;-74
2023/11/20 13:11:20;;;;;;;;;;;;;;;11.75;61.25;97452.56;4995533;28;20067;-74
2023/11/20 13:14:09;;;;;;;;;;;;;;;11.66;61.64;97440.13;5002116;28;19926;-74
2023/11/20 13:16:57;;;;;;;;;;;;;;;11.76;61.53;97437.81;5006383;28;19929;-74
2023/11/20 13:19:45;;;;;;;;;;;;;;;11.90;61.22;97437.59;5007085;28;19925;-74
2023/11/20 13:22:44;;;;;;;;;;;;;;;11.86;61.10;97433.16;5007503;28;19933;-74
2023/11/20 13:25:33;;;;;;;;;;;;;;;11.85;61.12;97432.34;5007718;28;20367;-74
2023/11/20 13:28:24;;;;;;;;;;;;;;;11.69;61.33;97442.19;5004660;28;19933;-74
2023/11/20 13:31:13;;;;;;;;;;;;;;;11.54;62.01;97436.19;5005128;28;19932;-74
2023/11/20 13:34:01;;;;;;;;;;;;;;;11.64;62.16;97434.22;5003297;28;19929;-74
2023/11/20 13:36:53;;;;;;;;;;;;;;;11.77;61.81;97430.44;5006626;28;20371;-74
2023/11/20 13:39:41;;;;;;;;;;;;;;;11.58;62.11;97428.19;5008431;28;19933;-74
2023/11/20 13:42:30;;;;;;;;;;;;;;;11.54;61.94;97433.47;5005552;28;19933;-74
2023/11/20 13:45:19;;;;;;;;;;;;;;;11.55;62.16;97426.09;5009067;28;19926;-74
2023/11/20 13:48:08;;;;;;;;;;;;;;;11.55;62.32;97429.63;5005513;28;19939;-74
2023/11/20 13:51:01;;;;;;;;;;;;;;;11.61;61.95;97426.72;5008856;28;19929;-74
2023/11/20 13:53:50;;;;;;;;;;;;;;;11.65;61.64;97427.66;4994944;28;19926;-74
2023/11/20 13:56:39;;;;;;;;;;;;;;;11.52;61.69;97427.56;5006992;28;19929;-74
2023/11/20 13:59:30;;;;;;;;;;;;;;;11.54;61.41;97428.03;5007737;28;20449;-74
2023/11/20 14:02:19;;;;;;;;;;;;;;;11.44;61.43;97427.63;5006485;28;19932;-74
2023/11/20 14:05:09;;;;;;;;;;;;;;;11.37;61.68;97447.19;4993600;28;19929;-74
2023/11/20 14:07:58;;;;;;;;;;;;;;;11.34;61.65;97417.91;5010900;28;19983;-74
2023/11/20 14:10:48;;;;;;;;;;;;;;;11.33;61.58;97410.88;5008608;28;19999;-74
2023/11/20 14:13:36;;;;;;;;;;;;;;;11.28;61.48;97413.78;5011755;28;19926;-74
2023/11/20 14:16:23;;;;;;;;;;;;;;;11.32;61.81;97417.44;5007428;28;19989;-74
2023/11/20 14:19:13;;;;;;;;;;;;;;;11.14;61.81;97416.75;5017657;28;20636;-74
2023/11/20 14:22:02;;;;;;;;;;;;;;;11.15;61.82;97414.81;5021934;28;20353;-74
2023/11/20 14:24:51;;;;;;;;;;;;;;;11.12;62.17;97427.13;5006537;28;19929;-73
2023/11/20 14:27:39;;;;;;;;;;;;;;;11.19;62.14;97418.47;5008225;28;20091;-74
2023/11/20 14:30:27;;;;;;;;;;;;;;;11.16;62.25;97419.91;5007203;28;19925;-73
2023/11/20 14:33:15;;;;;;;;;;;;;;;11.04;62.06;97424.47;5010863;28;20279;-73
2023/11/20 14:36:04;;;;;;;;;;;;;;;11.21;62.16;97418.94;5009840;28;19925;-74
2023/11/20 14:38:56;;;;;;;;;;;;;;;11.00;62.67;97416.94;5007519;28;19991;-74
2023/11/20 14:41:44;;;;;;;;;;;;;;;11.17;62.78;97415.28;5002589;28;19932;-74